Latest Weather Observations for Flinders Island Airport

IDT60801

Issued at 7:03 pm EST Sunday 19 April 2015 (issued every 30 minutes, with the page automatically refreshed every 10 minutes)

About weather observations | Map of weather stations | Latest weather observations for TAS | Other Formats
Station Details ID: 099005 Name: FLINDERS ISLAND AIRPORT Lat: -40.09 Lon: 148.00 Height: 9.0 m
Data from the previous 72 hours. | See also: Recent months at Flinders Island Airport
Date/Time
EST
Temp
°C
App
Temp
°C
Dew
Point
Rel
Hum
%
Delta-T
°C
Wind Press
QNH
hPa
Press
MSL
hPa
Rain
since 9 am
mm
Dir
 
Spd
km/h
Gust
km/h
Spd
kts
Gust
kts
19/07:00pm 9.9 5.6 3.2 63 2.9 ESE 15 24 8 13 1030.8 1030.8 0.0
19/06:30pm 10.4 5.7 3.4 62 3.0 ESE 17 33 9 18 1030.3 1030.3 0.0
19/06:00pm 11.4 7.5 3.4 58 3.5 ESE 13 20 7 11 1029.4 1029.4 0.0
19/05:30pm 12.6 9.3 2.5 50 4.4 SE 9 15 5 8 1028.7 1028.7 0.0
19/05:00pm 13.6 8.7 1.9 45 5.0 SW 17 20 9 11 1028.1 1028.1 0.0
19/04:30pm 13.9 9.0 1.9 44 5.2 SSW 17 20 9 11 1027.5 1027.5 0.0
19/04:00pm 14.5 9.7 2.4 44 5.3 SSW 17 26 9 14 1027.0 1027.0 0.0
19/03:30pm 14.5 9.9 3.6 48 4.9 SSW 17 24 9 13 1026.7 1026.7 0.0
19/03:00pm 15.2 10.6 3.7 46 5.2 SW 17 20 9 11 1026.4 1026.3 0.0
19/02:30pm 14.8 10.2 3.6 47 5.1 SSW 17 22 9 12 1026.1 1026.0 0.0
19/02:00pm 14.7 9.8 4.1 49 4.8 SSW 19 28 10 15 1025.5 1025.4 0.0
19/01:30pm 14.8 10.0 4.5 50 4.8 SSW 19 24 10 13 1025.1 1025.0 0.0
19/01:00pm 14.9 10.6 5.1 52 4.6 SSW 17 22 9 12 1024.8 1024.7 0.0
19/12:30pm 14.6 10.7 5.4 54 4.3 SSW 15 20 8 11 1024.6 1024.5 0.0
19/12:00pm 14.4 9.6 4.4 51 4.6 S 19 28 10 15 1024.5 1024.4 0.0
19/11:30am 14.4 9.5 5.0 53 4.4 S 20 28 11 15 1024.3 1024.2 0.0
19/11:00am 14.1 9.0 4.1 51 4.6 S 20 33 11 18 1024.0 1023.9 0.0
19/10:30am 14.2 8.6 3.4 48 4.8 SSE 22 33 12 18 1023.5 1023.4 0.0
19/10:00am 14.1 8.5 3.3 48 4.8 S 22 35 12 19 1023.0 1022.9 0.0
19/09:30am 13.5 8.0 3.8 52 4.4 SSE 22 37 12 20 1022.3 1022.2 0.0
19/09:00am 13.6 7.8 4.2 53 4.3 SSE 24 35 13 19 1021.6 1021.5 0.4
19/08:30am 13.3 8.5 4.5 55 4.0 SSE 19 33 10 18 1020.9 1020.8 0.4
19/08:00am 13.0 8.0 4.4 56 3.9 SSE 20 33 11 18 1020.0 1019.9 0.4
19/07:30am 13.3 6.1 5.9 61 3.5 SSW 33 43 18 23 1018.9 1018.8 0.4
19/07:00am 12.9 5.7 5.8 62 3.3 SSW 33 43 18 23 1017.8 1017.8 0.4
19/06:30am 13.2 6.3 6.5 64 3.2 SSW 32 43 17 23 1016.9 1016.9 0.4
19/06:00am 13.0 6.1 6.4 64 3.1 SW 32 44 17 24 1016.1 1016.1 0.4
19/05:30am 12.9 5.5 6.9 67 2.9 SW 35 43 19 23 1015.6 1015.6 0.4
19/05:00am 12.8 5.7 6.4 65 3.0 WSW 33 41 18 22 1015.1 1015.1 0.4
19/04:30am 13.0 5.8 5.9 62 3.3 WSW 33 41 18 22 1014.5 1014.5 0.4
19/04:00am 13.1 5.5 6.0 62 3.4 WSW 35 44 19 24 1014.1 1014.1 0.4
19/03:30am 13.3 5.9 6.6 64 3.2 WSW 35 43 19 23 1013.8 1013.8 0.4
19/03:00am 13.5 4.8 6.1 61 3.5 WSW 41 52 22 28 1013.4 1013.4 0.4
19/02:30am 13.5 5.3 6.6 63 3.3 WSW 39 52 21 28 1013.5 1013.5 0.4
19/02:00am 14.0 5.1 6.8 62 3.5 WSW 43 52 23 28 1013.3 1013.3 0.4
19/01:30am 14.1 5.1 6.5 60 3.7 WSW 43 54 23 29 1013.2 1013.2 0.4
19/01:00am 14.2 5.7 7.0 62 3.5 SW 41 50 22 27 1012.9 1012.9 0.4
19/12:30am 14.0 5.6 7.5 65 3.2 WSW 41 52 22 28 1012.7 1012.7 0.4
19/12:00am 13.5 5.3 8.1 70 2.7 WSW 41 54 22 29 1012.7 1012.7 0.4
 
Date/Time
EST
Temp
°C
App
Temp
°C
Dew
Point
Rel
Hum
%
Delta-T
°C
Wind Press
QNH
hPa
Press
MSL
hPa
Rain
since 9 am
mm
Dir
 
Spd
km/h
Gust
km/h
Spd
kts
Gust
kts
18/11:30pm 14.3 6.4 7.8 65 3.2 WSW 39 50 21 27 1012.4 1012.4 0.4
18/11:00pm 14.4 6.7 8.8 69 2.8 W 39 50 21 27 1012.5 1012.5 0.4
18/10:30pm 13.8 6.4 8.2 69 2.8 WSW 37 52 20 28 1012.7 1012.7 0.4
18/10:00pm 14.1 6.8 8.7 70 2.7 WSW 37 50 20 27 1012.3 1012.3 0.4
18/09:30pm 14.3 6.6 8.7 69 2.8 W 39 48 21 26 1011.8 1011.8 0.4
18/09:00pm 14.6 6.2 8.8 68 2.9 W 43 52 23 28 1011.7 1011.7 0.4
18/08:30pm 14.7 6.6 9.9 73 2.5 WSW 43 52 23 28 1011.3 1011.3 0.4
18/08:00pm 14.4 6.2 9.6 73 2.5 WSW 43 52 23 28 1010.7 1010.7 0.4
18/07:53pm 14.2 6.1 10.0 76 2.2 WSW 43 54 23 29 1010.6 1010.6 0.4
18/07:30pm 14.0 5.7 11.3 84 1.4 WSW 46 57 25 31 1010.3 1010.3 0.4
18/07:23pm 13.9 6.0 11.6 86 1.2 WSW 44 56 24 30 1010.2 1010.2 0.4
18/07:16pm 14.7 8.4 12.4 86 1.3 W 37 54 20 29 1010.0 1010.0 0.4
18/07:13pm 16.1 10.2 12.3 78 2.1 WNW 35 54 19 29 1009.9 1009.9 0.4
18/07:00pm 16.2 10.9 11.2 72 2.7 NW 30 37 16 20 1009.6 1009.6 0.4
18/06:30pm 16.0 11.1 11.2 73 2.6 NW 28 35 15 19 1009.3 1009.3 0.4
18/06:00pm 16.0 10.9 11.8 76 2.3 NW 30 41 16 22 1009.3 1009.3 0.4
18/05:30pm 15.7 10.8 11.3 75 2.4 WNW 28 39 15 21 1009.0 1009.0 0.2
18/05:00pm 16.2 10.2 10.9 71 2.8 WNW 33 43 18 23 1008.8 1008.8 0.2
18/04:30pm 16.2 10.4 11.6 74 2.5 WNW 33 41 18 22 1008.6 1008.6 0.2
18/04:00pm 16.9 11.8 11.8 72 2.8 WNW 30 41 16 22 1008.5 1008.5 0.2
18/03:30pm 16.7 11.3 12.3 75 2.4 WNW 32 43 17 23 1008.7 1008.7 0.2
18/03:00pm 17.3 12.0 12.6 74 2.6 WNW 32 39 17 21 1008.5 1008.5 0.2
18/02:30pm 16.7 12.5 13.6 82 1.7 WNW 28 37 15 20 1008.7 1008.7 0.2
18/02:26pm 16.7 12.9 13.6 82 1.7 WNW 26 35 14 19 1008.8 1008.8 0.2
18/02:00pm 15.5 11.7 13.5 88 1.1 W 26 33 14 18 1008.9 1008.9 0.2
18/01:58pm 15.6 11.8 13.6 88 1.1 W 26 33 14 18 1009.0 1009.0 0.2
18/01:30pm 16.6 12.4 12.4 76 2.3 WNW 26 35 14 19 1008.9 1008.9 0.2
18/01:00pm 16.6 12.0 12.2 75 2.4 WNW 28 33 15 18 1009.3 1009.3 0.2
18/12:30pm 17.0 12.7 12.1 73 2.7 WNW 26 33 14 18 1009.8 1009.8 0.2
18/12:00pm 17.9 13.4 12.6 71 3.0 WNW 28 35 15 19 1010.1 1010.1 0.2
18/11:30am 17.2 12.2 12.3 73 2.7 WNW 30 37 16 20 1010.4 1010.4 0.2
18/11:00am 17.0 12.4 12.3 74 2.6 WNW 28 35 15 19 1010.4 1010.4 0.2
18/10:34am 16.9 13.0 12.0 73 2.7 WNW 24 32 13 17 1010.7 1010.7 0.2
18/10:30am 16.7 12.8 12.0 74 2.6 WNW 24 32 13 17 1010.6 1010.6 0.2
18/10:00am 15.5 12.6 13.9 90 0.9 NW 22 28 12 15 1011.0 1011.0 0.2
18/09:30am 15.4 12.9 14.1 92 0.7 WNW 20 30 11 16 1010.8 1010.8 0.2
18/09:00am 15.8 12.7 13.3 85 1.4 NW 22 30 12 16 1011.2 1011.2 0.2
18/08:30am 15.8 12.4 13.6 87 1.2 WNW 24 35 13 19 1011.2 1011.2 0.2
18/08:00am 15.5 12.9 13.7 89 1.0 WNW 20 30 11 16 1011.2 1011.2 0.2
18/07:30am 15.4 12.9 13.6 89 1.0 NW 19 28 10 15 1010.9 1010.9 0.2
18/07:00am 15.2 12.6 13.7 91 0.8 NW 20 30 11 16 1010.8 1010.8 0.2
18/06:30am 14.9 12.8 13.6 92 0.7 NNW 17 20 9 11 1010.5 1010.5 0.2
18/06:00am 14.6 13.2 13.3 92 0.7 NNW 13 15 7 8 1010.6 1010.6 0.2
18/05:31am 14.3 13.5 13.0 92 0.7 NNW 9 11 5 6 1010.1 1010.1 0.2
18/05:30am 14.3 13.5 13.0 92 0.7 NNW 9 11 5 6 1010.1 1010.1 0.2
18/05:22am 14.3 13.5 13.0 92 0.7 NNW 9 11 5 6 1010.0 1010.0 0.2
18/05:00am 14.4 13.3 13.0 91 0.8 NNW 11 17 6 9 1010.1 1010.1 0.2
18/04:30am 14.4 13.3 13.1 92 0.7 NNW 11 15 6 8 1010.6 1010.6 0.2
18/04:00am 14.3 13.5 12.9 91 0.8 NNW 9 11 5 6 1010.4 1010.4 0.2
18/03:30am 14.4 13.3 13.0 91 0.8 NNW 11 13 6 7 1010.4 1010.4 0.2
18/03:00am 14.8 14.1 13.2 90 0.9 NW 9 13 5 7 1010.9 1010.9 0.2
18/02:56am 14.9 13.8 13.1 89 1.0 NW 11 15 6 8 1010.9 1010.9 0.2
18/02:30am 15.3 14.3 13.3 88 1.1 NW 11 13 6 7 1011.3 1011.3 0.0
18/02:00am 13.8 13.4 12.4 91 0.8 NE 6 9 3 5 1012.0 1012.0 0.0
18/01:30am 13.7 12.7 12.3 91 0.8 NE 9 9 5 5 1012.4 1012.4 0.0
18/01:00am 13.4 13.2 11.8 90 0.9 NE 4 7 2 4 1013.0 1013.0 0.0
18/12:30am 13.5 14.0 11.7 89 1.0 CALM 0 9 0 5 1013.3 1013.3 0.0
18/12:00am 13.8 14.3 11.7 87 1.1 CALM 0 0 0 0 1013.7 1013.7 0.0
 
Date/Time
EST
Temp
°C
App
Temp
°C
Dew
Point
Rel
Hum
%
Delta-T
°C
Wind Press
QNH
hPa
Press
MSL
hPa
Rain
since 9 am
mm
Dir
 
Spd
km/h
Gust
km/h
Spd
kts
Gust
kts
17/11:30pm 13.8 14.3 11.7 87 1.1 CALM 0 0 0 0 1014.0 1014.0 0.0
17/11:00pm 13.9 13.6 11.6 86 1.2 ENE 4 9 2 5 1014.4 1014.4 0.0
17/10:30pm 14.0 13.3 11.5 85 1.3 SE 6 9 3 5 1014.9 1014.9 0.0
17/10:00pm 13.6 12.6 10.9 84 1.4 SSE 7 9 4 5 1015.3 1015.3 0.0
17/09:30pm 13.4 12.5 10.8 84 1.4 NE 6 13 3 7 1015.8 1015.8 0.0
17/09:00pm 13.5 12.9 10.3 81 1.7 SE 4 7 2 4 1016.0 1016.0 0.0
17/08:30pm 13.6 12.3 9.8 78 2.0 E 7 7 4 4 1016.6 1016.6 0.0
17/08:00pm 14.3 13.0 10.1 76 2.2 ENE 7 9 4 5 1017.1 1017.1 0.0
17/07:30pm 13.9 12.5 9.5 75 2.3 N 7 11 4 6 1017.5 1017.5 0.0
17/07:00pm 13.9 12.2 9.7 76 2.2 N 9 11 5 6 1017.8 1017.8 0.0
17/06:30pm 13.6 11.7 9.1 74 2.3 NNE 9 11 5 6 1017.8 1017.8 0.0
17/06:00pm 13.8 11.5 9.0 73 2.4 N 11 15 6 8 1017.8 1017.8 0.0
17/05:30pm 14.6 12.0 9.2 70 2.8 N 13 15 7 8 1017.7 1017.7 0.0
17/05:00pm 15.2 13.1 9.8 70 2.8 WNW 11 15 6 8 1017.6 1017.6 0.0
17/04:30pm 15.6 13.0 9.5 67 3.2 WNW 13 17 7 9 1017.5 1017.5 0.0
17/04:00pm 15.8 12.8 9.2 65 3.4 W 15 19 8 10 1017.8 1017.8 0.0
17/03:30pm 16.1 13.1 9.3 64 3.5 W 15 19 8 10 1018.6 1018.5 0.0
17/03:00pm 16.5 13.1 9.2 62 3.8 W 17 22 9 12 1019.0 1018.9 0.0
17/02:30pm 16.6 12.7 9.3 62 3.8 W 20 26 11 14 1019.1 1019.0 0.0
17/02:00pm 16.7 13.2 8.9 60 4.0 WNW 17 24 9 13 1019.1 1019.0 0.0
17/01:30pm 17.4 14.1 9.6 60 4.1 W 17 24 9 13 1019.7 1019.6 0.0
17/01:00pm 17.6 14.0 9.8 60 4.1 WNW 19 28 10 15 1020.3 1020.2 0.0
17/12:30pm 17.1 13.9 9.8 62 3.8 W 17 24 9 13 1020.9 1020.8 0.0
17/12:00pm 17.0 14.0 9.4 61 3.9 WNW 15 20 8 11 1021.7 1021.6 0.0
17/11:30am 17.4 14.9 9.8 61 4.0 W 13 19 7 10 1022.2 1022.1 0.0
17/11:00am 17.4 14.1 9.6 60 4.1 W 17 24 9 13 1022.6 1022.5 0.0
17/10:30am 16.7 13.5 9.9 64 3.6 W 17 22 9 12 1023.1 1023.0 0.0
17/10:00am 16.9 14.0 9.8 63 3.7 WNW 15 20 8 11 1023.3 1023.2 0.0
17/09:30am 16.8 13.9 9.7 63 3.7 W 15 22 8 12 1023.2 1023.1 0.0
17/09:00am 16.3 13.1 9.9 66 3.3 W 17 20 9 11 1023.3 1023.2 0.0
17/08:30am 15.6 11.9 10.2 70 2.8 W 20 26 11 14 1023.4 1023.3 0.0
17/08:00am 15.5 12.4 10.3 71 2.7 WSW 17 24 9 13 1023.4 1023.3 0.0
17/07:30am 14.8 11.6 9.8 72 2.6 W 17 22 9 12 1023.3 1023.2 0.0
17/07:00am 13.6 9.8 9.1 74 2.3 WSW 19 22 10 12 1023.2 1023.1 0.0
17/06:30am 14.1 9.8 9.3 73 2.5 WSW 22 28 12 15 1023.2 1023.1 0.0
17/06:00am 14.0 9.7 9.2 73 2.4 WSW 22 28 12 15 1023.1 1023.0 0.0
17/05:30am 14.2 9.9 9.2 72 2.5 WSW 22 28 12 15 1023.0 1022.9 0.0
17/05:00am 13.9 9.6 9.5 75 2.2 SW 22 30 12 16 1022.6 1022.5 0.0
17/04:30am 14.2 9.2 9.6 74 2.4 WSW 26 32 14 17 1022.4 1022.3 0.0
17/04:00am 14.1 8.6 9.1 72 2.5 WSW 28 32 15 17 1022.2 1022.1 0.0
17/03:30am 14.1 8.7 9.5 74 2.4 WSW 28 33 15 18 1022.2 1022.1 0.0
17/03:00am 13.9 8.3 8.9 72 2.5 WSW 28 33 15 18 1022.1 1022.0 0.0
17/02:30am 14.0 7.7 9.0 72 2.5 WSW 32 35 17 19 1022.3 1022.2 0.0
17/02:00am 14.0 7.7 9.0 72 2.5 WSW 32 37 17 20 1022.5 1022.4 0.0
17/01:30am 13.9 7.5 8.7 71 2.6 WSW 32 37 17 20 1022.8 1022.7 0.0
17/01:00am 14.1 8.0 8.3 68 2.9 WSW 30 39 16 21 1023.0 1022.9 0.0
17/12:30am 13.9 7.5 8.5 70 2.7 WSW 32 39 17 21 1023.4 1023.3 0.0
17/12:00am 14.2 7.7 8.8 70 2.7 WSW 33 39 18 21 1023.7 1023.6 0.0
 
Date/Time
EST
Temp
°C
App
Temp
°C
Dew
Point
Rel
Hum
%
Delta-T
°C
Wind Press
QNH
hPa
Press
MSL
hPa
Rain
since 9 am
mm
Dir
 
Spd
km/h
Gust
km/h
Spd
kts
Gust
kts
16/11:30pm 14.3 7.6 8.0 66 3.1 WSW 33 41 18 22 1024.0 1023.9 0.0
16/11:00pm 14.4 8.1 8.8 69 2.8 WSW 32 43 17 23 1023.9 1023.8 0.0
16/10:30pm 14.4 7.5 9.0 70 2.7 WSW 35 41 19 22 1024.0 1023.9 0.0
16/10:00pm 14.6 6.9 8.8 68 2.9 WSW 39 44 21 24 1023.9 1023.8 0.0
16/09:30pm 14.5 7.6 8.9 69 2.8 WSW 35 43 19 23 1023.6 1023.5 0.0
16/09:00pm 14.7 7.9 9.3 70 2.8 WSW 35 41 19 22 1023.6 1023.5 0.0
16/08:30pm 14.9 8.1 9.3 69 2.9 WSW 35 41 19 22 1023.3 1023.2 0.0
16/08:00pm 15.1 8.4 9.7 70 2.8 WSW 35 43 19 23 1023.2 1023.1 0.0
16/07:30pm 15.1 8.4 9.7 70 2.8 WSW 35 44 19 24 1023.0 1022.9 0.0

Other Formats:

Comma delimited format used in spreadsheet applications
http://www.bom.gov.au/fwo/IDT60801/IDT60801.94980.axf

JavaScript Object Notation format (JSON) in row-major order
http://www.bom.gov.au/fwo/IDT60801/IDT60801.94980.json